Time;durP1;ratioP1;P1;durP2;ratioP2;P2;SDS_P1;SDS_P2;PMS_P1;PMS_P2;Temp;Humidity;BMP_temperature;BMP_pressure;BME280_temperature;BME280_humidity;BME280_pressure;Samples;Min_cycle;Max_cycle;Signal;HPM_P1;HPM_P2
2023/02/10 00:15:05;;;;;;;28.50;19.30;;;;;;;0.16;74.60;101879.74;153139;1270;44394;-75
2023/02/10 00:19:15;;;;;;;26.10;14.60;;;;;;;0.09;74.26;101878.08;180671;1270;57170;-75
2023/02/10 00:23:19;;;;;;;26.90;15.90;;;;;;;0.08;74.07;101871.12;180606;1270;43370;-75
2023/02/10 00:27:28;;;;;;;25.40;17.20;;;;;;;0.06;74.13;101879.35;180609;1273;43043;-75
2023/02/10 00:31:32;;;;;;;24.10;15.40;;;;;;;0.06;73.94;101883.16;180597;1270;43487;-75
2023/02/10 00:35:45;;;;;;;27.60;18.00;;;;;;;0.09;73.68;101888.02;180576;1270;43043;-75
2023/02/10 00:39:50;;;;;;;31.50;19.00;;;;;;;0.10;73.47;101886.61;180450;1270;60215;-75
2023/02/10 00:43:53;;;;;;;33.90;19.40;;;;;;;0.11;73.52;101888.34;180641;1270;43548;-75
2023/02/10 00:48:01;;;;;;;33.20;18.70;;;;;;;0.09;73.83;101884.87;180705;1271;43776;-75
2023/02/10 00:52:04;;;;;;;25.70;16.40;;;;;;;0.05;74.39;101891.04;180555;1270;43728;-76
2023/02/10 00:56:57;;;;;;;25.40;18.60;;;;;;;-0.03;74.50;101897.23;180773;1270;43677;-75
2023/02/10 01:01:00;;;;;;;31.80;20.00;;;;;;;-0.09;74.67;101896.45;180825;1270;57939;-75
2023/02/10 01:05:32;;;;;;;28.40;18.20;;;;;;;-0.13;74.66;101894.39;180844;1269;42979;-75
2023/02/10 01:09:35;;;;;;;35.30;19.40;;;;;;;-0.17;74.65;101895.83;180821;1270;43034;-75
2023/02/10 01:13:38;;;;;;;29.30;18.00;;;;;;;-0.23;74.71;101894.84;180818;1270;43091;-76
2023/02/10 01:17:41;;;;;;;35.90;19.80;;;;;;;-0.27;74.88;101887.91;180782;1270;43007;-75
2023/02/10 01:21:48;;;;;;;24.40;15.80;;;;;;;-0.39;75.36;101881.23;180819;1270;58160;-75
2023/02/10 01:25:50;;;;;;;30.20;16.40;;;;;;;-0.43;75.53;101881.29;180830;1270;43065;-75
2023/02/10 01:29:53;;;;;;;22.70;17.00;;;;;;;-0.44;75.33;101881.63;180858;1273;43006;-76
2023/02/10 01:33:57;;;;;;;37.30;23.10;;;;;;;-0.45;75.70;101879.55;180807;1270;43790;-75
2023/02/10 01:38:00;;;;;;;63.50;28.10;;;;;;;-0.41;75.69;101881.27;180683;1270;43050;-75
2023/02/10 01:42:04;;;;;;;63.60;27.30;;;;;;;-0.38;75.49;101876.89;180849;1272;59322;-75
2023/02/10 01:46:07;;;;;;;81.20;36.60;;;;;;;-0.40;75.49;101866.08;180854;1272;43043;-75
2023/02/10 01:50:21;;;;;;;64.00;32.50;;;;;;;-0.41;75.37;101864.17;180829;1271;43015;-75
2023/02/10 01:54:39;;;;;;;78.00;34.70;;;;;;;-0.44;75.70;101864.91;180473;1273;43071;-75
2023/02/10 01:58:44;;;;;;;48.40;25.10;;;;;;;-0.49;75.91;101871.58;180711;1270;42994;-75
2023/02/10 02:02:48;;;;;;;34.60;22.00;;;;;;;-0.56;76.55;101880.36;180672;1270;58278;-76
2023/02/10 02:07:07;;;;;;;34.60;22.80;;;;;;;-0.61;76.39;101882.49;180825;1270;43148;-75
2023/02/10 02:11:20;;;;;;;53.60;25.50;;;;;;;-0.65;76.44;101883.77;180528;1273;42962;-76
2023/02/10 02:16:11;;;;;;;49.60;25.20;;;;;;;-0.66;76.43;101890.04;180522;1269;43131;-75
2023/02/10 02:20:51;;;;;;;50.70;26.30;;;;;;;-0.67;76.52;101885.86;180562;1270;43471;-75
2023/02/10 02:25:35;;;;;;;42.60;28.20;;;;;;;-0.67;76.72;101885.69;180769;1270;57957;-76
2023/02/10 02:30:13;;;;;;;41.50;24.10;;;;;;;-0.67;76.69;101884.30;180777;1272;43114;-75
2023/02/10 02:34:27;;;;;;;30.00;21.20;;;;;;;-0.65;76.45;101882.88;180835;1270;43784;-75
2023/02/10 02:38:30;;;;;;;32.60;20.80;;;;;;;-0.66;76.31;101882.73;180868;1270;43218;-75
2023/02/10 02:42:58;;;;;;;25.00;17.40;;;;;;;-0.70;76.47;101890.94;180865;1270;43010;-75
2023/02/10 02:47:39;;;;;;;25.50;17.50;;;;;;;-0.72;76.42;101894.80;180879;1269;58319;-75
2023/02/10 02:51:52;;;;;;;26.70;17.30;;;;;;;-0.70;76.30;101895.64;179637;1276;43802;-75
2023/02/10 02:56:15;;;;;;;32.30;18.20;;;;;;;-0.78;75.89;101894.51;179555;1275;43086;-75
2023/02/10 03:00:41;;;;;;;24.00;16.50;;;;;;;-0.77;75.31;101893.27;179722;1276;43274;-75
2023/02/10 03:04:44;;;;;;;20.20;13.40;;;;;;;-0.70;74.59;101896.88;179510;1275;43056;-75
2023/02/10 03:08:47;;;;;;;19.80;12.20;;;;;;;-0.64;74.22;101900.46;179348;1276;58190;-75
2023/02/10 03:12:50;;;;;;;19.30;13.70;;;;;;;-0.61;73.77;101897.48;179318;1278;43189;-75
2023/02/10 03:16:53;;;;;;;26.70;17.90;;;;;;;-0.56;74.00;101898.85;179419;1278;43114;-75
2023/02/10 03:26:11;;;;;;;23.20;14.50;;;;;;;-0.56;74.03;101895.34;179682;1270;43784;-75
2023/02/10 03:30:14;;;;;;;25.70;15.50;;;;;;;-0.63;73.91;101898.55;180821;1270;58336;-75
2023/02/10 03:34:22;;;;;;;26.50;15.80;;;;;;;-0.65;74.24;101900.83;180829;1270;43603;-75
2023/02/10 03:38:27;;;;;;;32.70;18.00;;;;;;;-0.66;74.38;101901.37;180847;1270;43091;-75
2023/02/10 03:47:38;;;;;;;30.10;17.10;;;;;;;-0.78;75.75;101918.88;158275;1263;77452;-75
2023/02/10 03:52:48;;;;;;;20.50;13.80;;;;;;;-0.92;77.41;101927.19;152223;1267;78106;-74
2023/02/10 03:56:53;;;;;;;23.00;15.50;;;;;;;-1.00;77.83;101930.02;181001;1267;43618;-76
2023/02/10 04:01:52;;;;;;;22.20;17.10;;;;;;;-0.96;77.71;101930.70;181000;1267;43420;-75
2023/02/10 04:05:57;;;;;;;25.80;16.50;;;;;;;-0.93;77.43;101940.79;180973;1267;43371;-75
2023/02/10 04:10:02;;;;;;;22.50;16.30;;;;;;;-0.90;77.37;101941.27;180899;1268;42999;-75
2023/02/10 04:14:06;;;;;;;32.40;15.60;;;;;;;-0.91;76.78;101937.27;181011;1267;58675;-75
2023/02/10 04:18:38;;;;;;;30.20;17.30;;;;;;;-0.93;76.56;101940.25;180964;1268;43024;-75
2023/02/10 04:22:42;;;;;;;20.70;13.80;;;;;;;-0.99;76.86;101940.65;180938;1267;42977;-75
2023/02/10 04:27:15;;;;;;;30.90;16.00;;;;;;;-1.10;77.58;101939.66;180906;1268;43201;-75
2023/02/10 04:31:19;;;;;;;27.30;15.40;;;;;;;-1.15;77.84;101945.11;180963;1268;43612;-75
2023/02/10 04:35:26;;;;;;;25.20;15.40;;;;;;;-1.11;78.06;101945.95;179623;1268;81649;-88
2023/02/10 04:39:30;;;;;;;27.10;16.10;;;;;;;-1.08;78.44;101937.39;179468;1270;44129;-88
2023/02/10 04:43:34;;;;;;;24.10;14.90;;;;;;;-0.96;78.59;101939.23;179481;1270;44003;-88
2023/02/10 04:47:37;;;;;;;23.80;14.50;;;;;;;-0.77;78.79;101938.39;179573;1270;44037;-88
2023/02/10 04:51:42;;;;;;;27.40;14.60;;;;;;;-0.60;78.28;101936.69;179484;1270;43798;-87
2023/02/10 04:55:45;;;;;;;23.00;15.50;;;;;;;-0.50;77.38;101942.70;179514;1270;59652;-88
2023/02/10 04:59:49;;;;;;;25.40;16.60;;;;;;;-0.40;77.16;101944.54;179352;1270;44067;-87
2023/02/10 05:03:52;;;;;;;24.00;14.70;;;;;;;-0.32;76.94;101945.49;179429;1270;43830;-87
2023/02/10 05:07:56;;;;;;;26.40;16.20;;;;;;;-0.19;76.65;101947.11;179532;1270;43913;-87
2023/02/10 05:11:59;;;;;;;28.00;16.60;;;;;;;-0.06;77.50;101953.07;179419;1270;44653;-89
2023/02/10 05:16:03;;;;;;;31.00;17.20;;;;;;;0.01;78.57;101954.75;179602;1270;57780;-88
2023/02/10 05:20:09;;;;;;;;;;;;;;;0.03;79.38;101964.35;179520;1270;43957;-87
2023/02/10 05:24:12;;;;;;;31.30;17.20;;;;;;;0.05;78.90;101967.61;179452;1270;43587;-88
2023/02/10 05:28:36;;;;;;;28.20;15.20;;;;;;;0.23;77.46;101976.48;179530;1270;43939;-89
2023/02/10 05:32:41;;;;;;;31.30;20.00;;;;;;;0.40;76.23;101979.98;179501;1270;43914;-88
2023/02/10 05:36:44;;;;;;;29.70;17.30;;;;;;;0.54;76.14;101980.15;179490;1270;58288;-87
2023/02/10 05:40:49;;;;;;;32.00;19.70;;;;;;;0.62;76.61;101976.02;179523;1270;43949;-88
2023/02/10 05:44:52;;;;;;;42.20;18.70;;;;;;;0.72;76.74;101974.67;179417;1270;44224;-88
2023/02/10 05:48:55;;;;;;;38.60;21.30;;;;;;;0.83;76.96;101980.99;179375;1270;43822;-88
2023/02/10 05:52:58;;;;;;;29.90;16.50;;;;;;;0.85;77.21;101987.41;179616;1270;43743;-87
2023/02/10 05:57:02;;;;;;;24.30;16.10;;;;;;;0.90;77.91;101988.91;179340;1270;57886;-87
2023/02/10 06:01:07;;;;;;;33.40;19.20;;;;;;;0.97;76.54;101987.95;179430;1270;43832;-88
2023/02/10 06:05:10;;;;;;;28.80;17.40;;;;;;;1.01;76.51;101994.38;179510;1270;43889;-88
2023/02/10 06:09:14;;;;;;;31.40;18.00;;;;;;;0.92;75.96;102004.10;179505;1270;43806;-88
2023/02/10 06:13:17;;;;;;;27.20;17.10;;;;;;;0.88;75.65;102005.21;179544;1270;44266;-87
2023/02/10 06:17:20;;;;;;;33.50;20.40;;;;;;;0.90;76.29;102016.00;179680;1270;58654;-87
2023/02/10 06:21:23;;;;;;;30.50;20.40;;;;;;;0.96;77.40;102021.67;179448;1270;43772;-88
2023/02/10 06:25:27;;;;;;;34.50;19.80;;;;;;;0.99;76.52;102026.02;179559;1270;44368;-87
2023/02/10 06:29:30;;;;;;;24.00;14.50;;;;;;;1.04;75.98;102039.05;179739;1270;44060;-88
2023/02/10 06:33:35;;;;;;;27.00;19.60;;;;;;;1.12;75.81;102042.27;179529;1270;43877;-88
2023/02/10 06:37:38;;;;;;;33.50;17.90;;;;;;;1.21;75.91;102043.17;179482;1270;57937;-87
2023/02/10 06:41:41;;;;;;;25.80;17.60;;;;;;;1.27;75.95;102045.71;179419;1270;43864;-88
2023/02/10 06:45:45;;;;;;;28.30;16.60;;;;;;;1.32;75.70;102049.31;179500;1270;44008;-88
2023/02/10 06:49:49;;;;;;;33.60;18.80;;;;;;;1.35;75.71;102051.03;179539;1270;43867;-88
2023/02/10 06:53:52;;;;;;;29.00;18.20;;;;;;;1.44;76.73;102050.19;179397;1270;43806;-88
2023/02/10 06:57:58;;;;;;;31.20;19.20;;;;;;;1.49;76.43;102051.34;179384;1270;57966;-87
2023/02/10 07:02:04;;;;;;;28.20;18.20;;;;;;;1.56;75.84;102052.10;179278;1270;44149;-88
2023/02/10 07:06:08;;;;;;;43.50;19.70;;;;;;;1.59;75.72;102046.83;179491;1270;44261;-88
2023/02/10 07:10:11;;;;;;;31.10;18.50;;;;;;;1.65;76.26;102067.54;179491;1270;43849;-87
2023/02/10 07:14:14;;;;;;;41.10;23.60;;;;;;;1.63;76.56;102069.13;179522;1270;43892;-87
2023/02/10 07:18:18;;;;;;;27.70;18.90;;;;;;;1.72;76.33;102071.26;179358;1270;58011;-87
2023/02/10 07:22:22;;;;;;;33.70;21.50;;;;;;;1.76;77.68;102064.73;179489;1270;43861;-88
2023/02/10 07:26:26;;;;;;;35.10;20.50;;;;;;;1.72;79.55;102067.94;179414;1270;43900;-88
2023/02/10 07:30:29;;;;;;;36.30;22.80;;;;;;;1.75;80.65;102063.16;179380;1270;43884;-87
2023/02/10 07:34:34;;;;;;;39.40;26.00;;;;;;;1.81;80.93;102064.83;179423;1270;44166;-88
2023/02/10 07:38:37;;;;;;;35.30;24.30;;;;;;;1.87;82.19;102067.35;179445;1270;57949;-88
2023/02/10 07:42:40;;;;;;;37.40;23.40;;;;;;;1.91;82.25;102068.34;179402;1270;43888;-88
2023/02/10 07:46:44;;;;;;;46.40;25.90;;;;;;;1.98;82.91;102077.84;179536;1270;43886;-88
2023/02/10 07:50:48;;;;;;;39.80;25.20;;;;;;;2.02;82.69;102074.10;179519;1270;44293;-88
2023/02/10 07:54:51;;;;;;;48.60;25.10;;;;;;;2.10;82.43;102074.11;179420;1270;44064;-88
2023/02/10 07:58:55;;;;;;;43.80;29.70;;;;;;;2.18;81.82;102078.02;179750;1270;59609;-87
2023/02/10 08:02:59;;;;;;;31.70;21.10;;;;;;;2.29;80.61;102085.17;179441;1271;43814;-88
2023/02/10 08:07:03;;;;;;;40.60;25.60;;;;;;;2.37;80.01;102083.46;179530;1270;43897;-87
2023/02/10 08:11:06;;;;;;;35.00;23.50;;;;;;;2.42;79.60;102073.37;179603;1270;44073;-88
2023/02/10 08:15:09;;;;;;;38.00;25.10;;;;;;;2.46;80.58;102063.16;179431;1270;44108;-87
2023/02/10 08:19:13;;;;;;;38.90;25.80;;;;;;;2.47;81.26;102065.94;179536;1270;59433;-88
2023/02/10 08:23:17;;;;;;;75.70;30.20;;;;;;;2.45;81.93;102068.08;179507;1270;43978;-87
2023/02/10 08:27:21;;;;;;;29.00;20.70;;;;;;;2.50;82.35;102062.02;179422;1270;43725;-88
2023/02/10 08:31:25;;;;;;;41.00;25.20;;;;;;;2.52;82.90;102059.36;179535;1270;44130;-87
2023/02/10 08:35:29;;;;;;;43.50;27.30;;;;;;;2.59;82.58;102053.08;179270;1270;43772;-88
2023/02/10 08:39:33;;;;;;;38.90;18.40;;;;;;;2.64;82.78;102049.31;179494;1270;57957;-88
2023/02/10 08:43:36;;;;;;;38.60;24.00;;;;;;;2.66;82.96;102042.96;179598;1270;44160;-87
2023/02/10 08:47:40;;;;;;;37.50;22.20;;;;;;;2.71;82.85;102045.84;179505;1270;44132;-87
2023/02/10 08:51:44;;;;;;;40.40;27.50;;;;;;;2.81;82.92;102050.36;179382;1270;43895;-88
2023/02/10 08:55:58;;;;;;;38.90;21.60;;;;;;;2.92;82.12;102050.84;179459;1270;44139;-88
2023/02/10 09:00:06;;;;;;;46.10;26.10;;;;;;;3.16;82.13;102055.94;179421;1270;59373;-87
2023/02/10 09:04:10;;;;;;;48.60;25.70;;;;;;;3.35;81.41;102052.70;179490;1272;44039;-88
2023/02/10 09:08:15;;;;;;;38.60;26.60;;;;;;;3.46;80.64;102052.96;179580;1270;43755;-88
2023/02/10 09:12:19;;;;;;;47.10;26.90;;;;;;;3.69;80.46;102049.96;179538;1270;43850;-87
2023/02/10 09:16:22;;;;;;;32.50;21.70;;;;;;;3.78;79.42;102056.40;179481;1270;43808;-88
2023/02/10 09:20:26;;;;;;;45.00;25.00;;;;;;;3.88;79.17;102052.46;179469;1270;58083;-88
2023/02/10 09:24:29;;;;;;;38.90;26.20;;;;;;;4.00;79.41;102049.20;179418;1270;43934;-88
2023/02/10 09:28:32;;;;;;;32.70;20.60;;;;;;;4.00;78.97;102048.49;179351;1270;43807;-88
2023/02/10 09:32:36;;;;;;;34.10;20.90;;;;;;;4.03;79.32;102058.95;179474;1270;43834;-88
2023/02/10 09:36:50;;;;;;;37.30;24.90;;;;;;;4.10;79.12;102056.83;180268;1269;76829;-77
2023/02/10 09:40:59;;;;;;;34.20;21.80;;;;;;;4.21;79.14;102064.27;180770;1271;58341;-75
2023/02/10 09:49:48;;;;;;;38.10;23.50;;;;;;;4.64;77.49;102076.27;180601;1270;43049;-76
2023/02/10 09:53:51;;;;;;;38.10;24.40;;;;;;;4.72;75.71;102082.91;180636;1270;43624;-76
2023/02/10 09:58:10;;;;;;;34.90;24.70;;;;;;;4.76;74.80;102081.93;180464;1270;43126;-75
2023/02/10 10:02:20;;;;;;;40.30;22.70;;;;;;;4.59;74.67;102079.43;180769;1270;58326;-76
2023/02/10 10:06:29;;;;;;;38.60;22.70;;;;;;;4.55;75.48;102083.73;180446;1273;43040;-77
2023/02/10 10:10:40;;;;;;;48.00;24.30;;;;;;;4.56;76.19;102089.15;180458;1270;43452;-76
2023/02/10 10:14:53;;;;;;;37.00;23.70;;;;;;;4.62;76.44;102090.95;180798;1270;43382;-77
2023/02/10 10:19:08;;;;;;;44.10;24.60;;;;;;;4.70;75.83;102088.24;180837;1270;43813;-75
2023/02/10 10:23:38;;;;;;;48.30;25.50;;;;;;;4.82;76.51;102084.58;180812;1270;57863;-74
2023/02/10 10:32:17;;;;;;;39.20;21.90;;;;;;;4.71;76.57;102088.39;180615;1267;270327;-75
2023/02/10 10:36:32;;;;;;;32.80;20.30;;;;;;;4.70;77.26;102097.22;180879;1269;43102;-74
2023/02/10 10:40:37;;;;;;;44.00;23.90;;;;;;;4.64;77.36;102115.30;180897;1268;43586;-75
2023/02/10 10:44:42;;;;;;;36.90;22.20;;;;;;;4.55;77.50;102102.71;180891;1268;58320;-73
2023/02/10 10:49:08;;;;;;;36.00;23.80;;;;;;;4.64;78.00;102088.23;180897;1267;43697;-74
2023/02/10 10:53:22;;;;;;;30.90;20.10;;;;;;;4.70;77.67;102093.02;180970;1268;42963;-74
2023/02/10 10:57:27;;;;;;;38.60;22.20;;;;;;;4.57;77.90;102089.83;180913;1268;43681;-74
2023/02/10 11:01:34;;;;;;;35.10;24.50;;;;;;;4.62;78.07;102089.88;180895;1268;43505;-75
2023/02/10 11:05:38;;;;;;;37.20;20.70;;;;;;;4.66;78.43;102091.88;180824;1268;58156;-74
2023/02/10 11:09:50;;;;;;;38.10;21.80;;;;;;;4.71;78.71;102086.48;180876;1268;43526;-75
2023/02/10 11:13:55;;;;;;;32.40;20.20;;;;;;;4.62;77.83;102078.12;180857;1270;43738;-75
2023/02/10 11:23:53;;;;;;;40.20;20.70;;;;;;;4.49;78.04;102078.64;181001;1268;43017;-77
2023/02/10 11:27:58;;;;;;;39.50;23.20;;;;;;;4.46;78.30;102071.35;180928;1269;58347;-75
2023/02/10 11:32:18;;;;;;;33.70;21.50;;;;;;;4.47;78.50;102065.88;180876;1269;43118;-75
2023/02/10 11:36:30;;;;;;;30.20;19.70;;;;;;;4.49;78.43;102066.35;180933;1268;43685;-74
2023/02/10 11:40:52;;;;;;;37.00;22.10;;;;;;;4.52;78.69;102065.38;180873;1268;43848;-74
2023/02/10 11:45:16;;;;;;;33.80;21.20;;;;;;;4.65;78.77;102062.90;180897;1268;43847;-73
2023/02/10 11:49:19;;;;;;;46.00;25.20;;;;;;;4.65;78.08;102062.54;180975;1267;58284;-74
2023/02/10 11:53:29;;;;;;;42.40;24.40;;;;;;;4.80;78.41;102061.27;180974;1271;43223;-73
2023/02/10 12:08:20;;;;;;;40.80;22.80;;;;;;;5.04;77.65;102048.95;180827;1271;43011;-72
2023/02/10 12:12:44;;;;;;;33.30;23.70;;;;;;;5.06;77.85;102048.69;180867;1269;58317;-72
2023/02/10 12:17:07;;;;;;;41.30;19.30;;;;;;;4.92;78.39;102050.01;180835;1269;43833;-71
2023/02/10 12:21:31;;;;;;;28.40;18.00;;;;;;;4.81;79.19;102051.73;180916;1268;43025;-71
2023/02/10 12:25:56;;;;;;;30.80;18.80;;;;;;;4.81;79.47;102058.91;180823;1268;43898;-73
2023/02/10 12:29:59;;;;;;;35.60;19.70;;;;;;;4.80;79.24;102056.52;180818;1269;43082;-71
2023/02/10 12:39:03;;;;;;;33.80;18.80;;;;;;;4.72;79.52;102055.34;180904;1269;43155;-71
2023/02/10 12:52:31;;;;;;;28.70;19.10;;;;;;;4.55;79.48;102055.10;180811;1264;75162;-72
2023/02/10 12:57:13;;;;;;;30.20;20.80;;;;;;;4.58;79.50;102062.05;180944;1267;58533;-73
2023/02/10 13:01:29;;;;;;;52.10;21.20;;;;;;;4.77;80.58;102064.15;181019;1267;43092;-74
2023/02/10 13:06:26;;;;;;;33.70;21.00;;;;;;;4.83;79.29;102062.58;180947;1267;43042;-72
2023/02/10 13:10:34;;;;;;;31.00;19.70;;;;;;;4.79;79.08;102051.29;180924;1267;43423;-71
2023/02/10 13:14:40;;;;;;;39.20;18.40;;;;;;;4.75;79.84;102048.59;180675;1268;43907;-71
2023/02/10 13:19:02;;;;;;;38.30;21.00;;;;;;;4.67;79.66;102054.93;180976;1267;58053;-70
2023/02/10 13:23:42;;;;;;;27.60;17.80;;;;;;;4.63;80.31;102056.48;180918;1267;43733;-77
2023/02/10 13:28:13;;;;;;;39.60;19.00;;;;;;;4.48;80.72;102057.06;180975;1267;43529;-72
2023/02/10 13:33:01;;;;;;;25.10;16.30;;;;;;;4.34;81.06;102070.08;180884;1268;43181;-71
2023/02/10 13:42:34;;;;;;;40.80;21.90;;;;;;;4.34;81.74;102067.79;181001;1267;58000;-73
2023/02/10 13:46:37;;;;;;;38.40;18.60;;;;;;;4.34;81.25;102066.56;180946;1267;43215;-71
2023/02/10 13:50:52;;;;;;;36.60;18.60;;;;;;;4.27;81.54;102061.30;180990;1267;43023;-72
2023/02/10 13:55:23;;;;;;;38.50;18.30;;;;;;;4.19;81.75;102061.70;181020;1267;43338;-74
2023/02/10 13:59:46;;;;;;;37.90;22.10;;;;;;;4.23;81.57;102074.59;180942;1267;43669;-71
2023/02/10 14:03:55;;;;;;;36.00;19.80;;;;;;;4.14;81.71;102079.92;180893;1267;58397;-71
2023/02/10 14:07:58;;;;;;;34.10;19.40;;;;;;;4.12;82.05;102080.84;180836;1267;43732;-70
2023/02/10 14:12:04;;;;;;;42.80;20.60;;;;;;;4.15;82.84;102092.54;180891;1267;43648;-71
2023/02/10 14:16:29;;;;;;;46.40;22.90;;;;;;;4.19;82.71;102089.27;180953;1267;43251;-77
2023/02/10 14:20:35;;;;;;;33.20;19.70;;;;;;;4.30;82.66;102097.42;180931;1268;43026;-80
2023/02/10 14:24:44;;;;;;;37.60;22.70;;;;;;;4.44;82.15;102093.00;180971;1267;57902;-78
2023/02/10 14:29:19;;;;;;;31.70;21.90;;;;;;;4.53;81.52;102091.19;180433;1275;43694;-80
2023/02/10 14:33:30;;;;;;;26.80;18.40;;;;;;;4.56;81.18;102099.90;180329;1273;43110;-79
2023/02/10 14:37:35;;;;;;;38.40;21.60;;;;;;;4.56;80.80;102104.45;180263;1273;43154;-80
2023/02/10 14:41:38;;;;;;;33.10;18.90;;;;;;;4.65;81.04;102102.48;180091;1272;43260;-80
2023/02/10 14:45:45;;;;;;;40.50;22.80;;;;;;;4.65;80.75;102096.11;180557;1265;58750;-79
2023/02/10 14:49:50;;;;;;;;;;;;;;;4.54;80.35;102084.30;181009;1267;43066;-79
2023/02/10 14:53:54;;;;;;;30.80;18.30;;;;;;;4.43;80.29;102088.98;180935;1267;42909;-80
2023/02/10 14:58:21;;;;;;;27.70;16.90;;;;;;;4.35;81.15;102091.31;180678;1267;43754;-80
2023/02/10 15:02:30;;;;;;;37.70;19.00;;;;;;;4.24;81.33;102085.81;180918;1267;43077;-80
2023/02/10 15:06:33;;;;;;;35.00;19.90;;;;;;;4.12;80.84;102087.67;180858;1267;58262;-78
2023/02/10 15:10:43;;;;;;;29.60;16.60;;;;;;;4.06;81.08;102089.79;181039;1267;43077;-79
2023/02/10 15:14:51;;;;;;;38.20;19.00;;;;;;;3.95;81.34;102092.86;180984;1267;43097;-79
2023/02/10 15:18:55;;;;;;;32.00;19.20;;;;;;;3.92;81.86;102103.48;180995;1266;43477;-78
2023/02/10 15:59:54;;;;;;;36.00;20.20;;;;;;;3.99;80.81;102093.81;182343;1259;44716;-79
2023/02/10 16:04:56;;;;;;;36.80;21.50;;;;;;;3.98;81.02;102095.58;186504;1234;43605;-79
2023/02/10 16:08:59;;;;;;;35.50;22.30;;;;;;;4.04;81.06;102101.58;186129;1235;43529;-80
2023/02/10 16:13:04;;;;;;;30.00;18.20;;;;;;;4.07;81.03;102101.34;185934;1235;58823;-79
2023/02/10 16:17:07;;;;;;;31.40;18.30;;;;;;;4.13;80.72;102100.83;185931;1235;45935;-79
2023/02/10 16:21:15;;;;;;;26.60;17.40;;;;;;;4.18;80.76;102098.08;186107;1238;46119;-79
2023/02/10 16:25:20;;;;;;;38.60;19.40;;;;;;;4.18;80.48;102106.32;186095;1234;45895;-78
2023/02/10 16:29:29;;;;;;;29.80;18.80;;;;;;;4.25;80.21;102109.32;186109;1235;43617;-77
2023/02/10 16:34:32;;;;;;;23.70;16.20;;;;;;;4.21;80.16;102110.30;186813;1231;58290;-79
2023/02/10 16:38:39;;;;;;;26.10;16.00;;;;;;;4.20;80.52;102104.35;186987;1230;43549;-80
2023/02/10 16:42:42;;;;;;;24.50;17.10;;;;;;;4.21;80.57;102099.76;186692;1230;43383;-77
2023/02/10 16:46:46;;;;;;;29.50;17.50;;;;;;;4.20;80.61;102096.96;186735;1230;43411;-80
2023/02/10 16:51:03;;;;;;;24.60;17.00;;;;;;;4.18;80.91;102099.67;186846;1230;44521;-78
2023/02/10 16:55:06;;;;;;;28.40;17.60;;;;;;;4.13;81.22;102099.96;186966;1230;57364;-79
2023/02/10 17:04:16;;;;;;;29.80;19.00;;;;;;;4.06;81.49;102098.54;187092;1230;45763;-78
2023/02/10 17:08:19;;;;;;;29.30;15.90;;;;;;;4.01;81.68;102099.56;186709;1230;45931;-80
2023/02/10 17:12:22;;;;;;;31.30;16.90;;;;;;;3.96;81.80;102100.95;186946;1230;43514;-79
2023/02/10 17:16:34;;;;;;;29.20;16.30;;;;;;;3.98;81.94;102100.33;186968;1230;59728;-80
2023/02/10 17:20:39;;;;;;;21.00;13.90;;;;;;;3.95;81.66;102097.07;186875;1230;43739;-79
2023/02/10 17:24:41;;;;;;;24.60;12.80;;;;;;;3.98;81.56;102099.09;187252;1230;43414;-80
2023/02/10 17:29:06;;;;;;;21.30;14.00;;;;;;;4.00;81.74;102098.00;186904;1231;43689;-80
2023/02/10 17:37:39;;;;;;;18.20;10.10;;;;;;;3.98;81.56;102104.02;186226;1234;82683;-79
2023/02/10 17:41:42;;;;;;;31.00;11.50;;;;;;;4.00;81.35;102104.48;185870;1235;43924;-80
2023/02/10 17:45:48;;;;;;;22.20;10.80;;;;;;;4.00;81.34;102098.86;185916;1235;43469;-81
2023/02/10 17:49:55;;;;;;;;;;;;;;;4.03;81.38;102097.56;185984;1236;43700;31
2023/02/10 17:53:57;;;;;;;22.40;11.60;;;;;;;4.02;81.15;102094.60;182852;1234;45688;-87
2023/02/10 17:58:01;;;;;;;29.80;13.10;;;;;;;4.06;81.17;102102.95;182747;1234;58968;-87
2023/02/10 18:02:03;;;;;;;15.30;10.40;;;;;;;4.07;81.13;102105.90;182583;1238;46091;-86
2023/02/10 18:06:14;;;;;;;25.90;11.00;;;;;;;4.11;80.97;102111.77;182341;1238;46167;-86
2023/02/10 18:10:16;;;;;;;20.00;9.00;;;;;;;4.13;80.72;102110.48;182745;1234;46022;-86
2023/02/10 18:14:18;;;;;;;28.90;9.70;;;;;;;4.16;81.03;102108.86;182544;1238;44803;-86
2023/02/10 18:18:21;;;;;;;16.90;8.90;;;;;;;4.18;80.77;102105.83;182782;1234;57903;-86
2023/02/10 18:22:23;;;;;;;17.00;9.90;;;;;;;4.15;80.82;102103.26;182839;1238;46225;-87
2023/02/10 18:26:26;;;;;;;16.70;8.60;;;;;;;4.11;81.11;102109.28;182607;1234;46054;-87
2023/02/10 18:30:33;;;;;;;14.40;7.50;;;;;;;4.14;81.04;102110.64;182746;1234;46089;-88
2023/02/10 18:34:39;;;;;;;19.00;10.40;;;;;;;4.13;81.08;102102.21;182654;1234;46101;-87
2023/02/10 18:38:41;;;;;;;14.90;9.10;;;;;;;4.10;81.18;102103.88;182998;1234;59729;-86
2023/02/10 18:42:43;;;;;;;16.80;9.20;;;;;;;4.14;81.15;102105.39;182295;1234;45792;-86
2023/02/10 18:46:46;;;;;;;16.70;9.90;;;;;;;4.11;81.39;102098.60;183000;1234;46101;-87
2023/02/10 18:50:51;;;;;;;27.30;11.30;;;;;;;4.09;81.18;102099.18;182683;1236;46084;-86
2023/02/10 18:54:53;;;;;;;18.20;10.60;;;;;;;4.09;81.08;102096.89;182798;1234;46118;-86
2023/02/10 18:58:55;;;;;;;16.60;9.40;;;;;;;4.13;80.62;102099.95;182891;1234;58455;-87
2023/02/10 19:02:58;;;;;;;14.10;8.00;;;;;;;4.18;80.60;102097.55;183019;1234;45957;-86
2023/02/10 19:07:03;;;;;;;14.10;7.80;;;;;;;4.23;80.24;102096.54;182844;1235;46019;-86
2023/02/10 19:11:11;;;;;;;13.10;7.70;;;;;;;4.26;80.20;102100.48;183243;1238;46102;-89
2023/02/10 19:15:13;;;;;;;21.10;10.40;;;;;;;4.30;79.95;102094.24;182964;1234;44138;-89
2023/02/10 19:19:16;;;;;;;17.10;10.30;;;;;;;4.30;79.76;102088.10;182952;1234;60682;-89
2023/02/10 19:23:21;;;;;;;25.10;12.40;;;;;;;4.33;80.05;102075.39;182861;1235;46058;-89
2023/02/10 19:27:23;;;;;;;17.20;9.80;;;;;;;4.30;80.54;102065.61;182765;1234;46031;-89
2023/02/10 19:31:25;;;;;;;16.10;10.30;;;;;;;4.27;80.66;102061.66;182696;1235;45951;-90
2023/02/10 19:35:27;;;;;;;28.40;12.60;;;;;;;4.25;80.99;102059.95;182956;1238;46087;-90
2023/02/10 19:39:30;;;;;;;24.40;13.20;;;;;;;4.22;81.05;102054.23;182653;1238;59493;-89
2023/02/10 19:43:34;;;;;;;26.70;13.30;;;;;;;4.20;81.01;102049.72;182507;1238;46082;-88
2023/02/10 19:47:37;;;;;;;18.20;11.50;;;;;;;4.22;80.97;102044.60;182486;1234;46089;-88
2023/02/10 19:51:41;;;;;;;21.40;11.10;;;;;;;4.23;81.06;102048.06;182757;1238;46066;-89
2023/02/10 19:55:43;;;;;;;15.10;10.70;;;;;;;4.24;81.20;102049.27;182748;1234;45947;-89
2023/02/10 19:59:45;;;;;;;17.50;8.20;;;;;;;4.23;81.33;102045.10;182604;1238;60345;-90
2023/02/10 20:03:50;;;;;;;14.80;7.90;;;;;;;4.21;81.31;102042.33;182432;1234;46069;-88
2023/02/10 20:07:52;;;;;;;17.70;8.90;;;;;;;4.22;80.59;102046.17;182653;1234;45957;-89
2023/02/10 20:11:55;;;;;;;13.90;6.20;;;;;;;4.31;79.77;102039.95;182796;1238;46020;-89
2023/02/10 20:15:57;;;;;;;12.80;7.40;;;;;;;4.37;79.32;102027.30;182355;1235;46154;-89
2023/02/10 20:20:01;;;;;;;15.80;7.90;;;;;;;4.40;79.20;102012.27;183322;1234;59217;-89
2023/02/10 20:24:04;;;;;;;13.30;7.00;;;;;;;4.39;78.92;101991.59;182791;1239;45967;-90
2023/02/10 20:28:06;;;;;;;9.40;5.50;;;;;;;4.35;78.37;101979.95;182623;1238;45951;-89
2023/02/10 20:32:08;;;;;;;10.60;5.20;;;;;;;4.27;78.25;101969.64;182982;1234;46079;-88
2023/02/10 20:36:14;;;;;;;10.70;4.90;;;;;;;4.10;78.34;101958.32;182925;1234;45857;-90
2023/02/10 20:40:16;;;;;;;8.70;5.60;;;;;;;3.98;78.44;101950.05;182714;1234;59211;-88
2023/02/10 20:44:22;;;;;;;10.50;6.50;;;;;;;3.86;79.15;101953.01;182858;1234;46164;-90
2023/02/10 20:48:26;;;;;;;9.80;5.40;;;;;;;3.77;79.46;101956.61;182798;1238;45657;-89